• Join FlightAware (Why Join?)
  • Login
  • US Flag 
10:15PM EST


 

Airport Tracker/Info


-or-


 

Live Flight TrackerFlight Track Log ✈ N201LH ✈ 02-May-2013 ✈ KSUS - KHYX

Flight Track Log - Related Links

Times and Time Zones

All times are in EDT time to prevent confusion due to time zone crossing. See the N201LH flight status page for this flight to view local times or setup timezone preferences in your user account.

Time Position Orientation Groundspeed Altitude Reporting Facility
EDT Latitude Longitude Course Direction KTS MPH feet Rate Location/Type
11:05AM 38.6667 -90.6500 270° West 68 78 1,100  Level Gateway (St. Louis) TRACON
11:06AM 38.6667 -90.6833 270° West 81 93 1,800 700 Climbing Gateway (St. Louis) TRACON
11:07AM 38.6833 -90.7000 322° Northwest 91 105 2,500 650 Climbing Gateway (St. Louis) TRACON
11:08AM 38.7167 -90.7167 339° North 110 127 3,100 700 Climbing Gateway (St. Louis) TRACON
11:09AM 38.7500 -90.7333 339° North 104 120 3,900 700 Climbing Gateway (St. Louis) TRACON
11:10AM 38.7833 -90.7167 21° North 117 135 4,500 600 Climbing Gateway (St. Louis) TRACON
11:11AM 38.8167 -90.7000 21° North 122 140 5,100 600 Climbing Gateway (St. Louis) TRACON
11:12AM 38.8333 -90.6833 38° Northeast 124 143 5,700 550 Climbing Gateway (St. Louis) TRACON
11:13AM 38.8667 -90.6500 38° Northeast 120 138 6,200 500 Climbing Gateway (St. Louis) TRACON
11:14AM 38.8833 -90.6167 57° Northeast 126 145 6,700 400 Climbing Gateway (St. Louis) TRACON
11:15AM 38.9000 -90.5833 57° Northeast 131 151 7,000 150 Climbing Gateway (St. Louis) TRACON
11:16AM 38.9333 -90.5500 38° Northeast 156 180 7,000  Level Gateway (St. Louis) TRACON
11:16AM 38.9383 -90.5436 45° Northeast 138 159 7,000  Level Kansas City Center
11:17AM 38.9719 -90.5028 43° Northeast 155 178 7,000  Level Kansas City Center
11:18AM 39.0039 -90.4592 47° Northeast 164 189 7,000  Level Kansas City Center
11:19AM 39.0414 -90.4069 47° Northeast 166 191 7,000  Level Kansas City Center
11:20AM 39.0706 -90.3617 50° Northeast 165 190 7,000  Level Kansas City Center
11:21AM 39.1008 -90.3186 48° Northeast 164 189 7,000  Level Kansas City Center
11:22AM 39.1314 -90.2761 47° Northeast 162 186 7,000  Level Kansas City Center
11:23AM 39.1614 -90.2342 47° Northeast 159 183 7,000  Level Kansas City Center
11:24AM 39.1911 -90.1928 47° Northeast 158 182 7,000  Level Kansas City Center
11:25AM 39.2203 -90.1508 48° Northeast 158 182 7,000  Level Kansas City Center
11:27AM 39.2869 -90.0567 48° Northeast 162 186 7,000  Level Kansas City Center
11:28AM 39.3175 -90.0131 48° Northeast 163 188 7,000  Level Kansas City Center
11:29AM 39.3481 -89.9706 47° Northeast 162 186 7,000  Level Kansas City Center
11:30AM 39.3772 -89.9272 49° Northeast 161 185 7,000  Level Kansas City Center
11:32AM 39.4067 -89.8850 48° Northeast 159 183 7,000  Level Kansas City Center
11:33AM 39.4436 -89.8325 48° Northeast 163 188 7,000  Level Kansas City Center
11:34AM 39.4725 -89.7892 49° Northeast 161 185 7,000  Level Kansas City Center
11:35AM 39.5022 -89.7494 46° Northeast 157 181 7,000  Level Kansas City Center
11:36AM 39.5319 -89.7042 50° Northeast 161 185 7,000  Level Kansas City Center
11:37AM 39.5617 -89.6639 46° Northeast 157 181 7,000  Level Kansas City Center
11:38AM 39.5917 -89.6203 48° Northeast 160 184 7,000  Level Kansas City Center
11:39AM 39.6275 -89.5686 48° Northeast 161 185 7,000  Level Kansas City Center
11:40AM 39.6572 -89.5256 48° Northeast 161 185 7,000  Level Kansas City Center
11:41AM 39.6864 -89.4833 48° Northeast 158 182 7,000  Level Kansas City Center
11:42AM 39.7139 -89.4447 47° Northeast 159 183 7,000  Level Kansas City Center
11:43AM 39.7478 -89.3958 48° Northeast 154 177 7,000  Level Kansas City Center
11:44AM 39.7778 -89.3522 48° Northeast 159 183 7,000  Level Kansas City Center
11:45AM 39.8061 -89.3122 47° Northeast 154 177 7,000  Level Kansas City Center
11:46AM 39.8342 -89.2714 48° Northeast 152 175 7,000  Level Kansas City Center
11:47AM 39.8608 -89.2319 49° Northeast 148 170 7,000 48 Level Kansas City Center
11:48AM 39.8892 -89.1914 48° Northeast 150 173 7,100  Climbing Kansas City Center
11:49AM 39.9233 -89.1419 48° Northeast 152 175 7,000 -49 Descending Kansas City Center
11:50AM 39.9522 -89.0986 49° Northeast 156 180 7,000  Level Kansas City Center
11:51AM 39.9814 -89.0547 49° Northeast 160 184 7,000  Level Kansas City Center
11:52AM 40.0114 -89.0128 47° Northeast 159 183 7,000  Level Kansas City Center
11:53AM 40.0392 -88.9692 50° Northeast 158 182 7,000  Level Kansas City Center
11:54AM 40.0694 -88.9272 47° Northeast 159 183 7,000  Level Kansas City Center
11:55AM 40.1044 -88.8744 49° Northeast 159 183 7,000  Level Kansas City Center
11:56AM 40.1342 -88.8325 47° Northeast 159 183 7,000  Level Kansas City Center
11:57AM 40.1453 -88.8156 49° Northeast 157 181 7,000  Level Chicago Center
11:58AM 40.1744 -88.7719 49° Northeast 159 183 7,000  Level Chicago Center
11:59AM 40.2033 -88.7294 48° Northeast 157 181 7,000  Level Chicago Center
12:00PM 40.2322 -88.6861 49° Northeast 158 182 7,000  Level Chicago Center
12:01PM 40.2619 -88.6433 48° Northeast 158 182 7,000  Level Chicago Center
12:02PM 40.2969 -88.5903 49° Northeast 160 184 7,000  Level Chicago Center
12:03PM 40.3258 -88.5481 48° Northeast 157 181 7,000  Level Chicago Center
12:04PM 40.3569 -88.5008 49° Northeast 157 181 7,000  Level Chicago Center
12:05PM 40.3850 -88.4583 49° Northeast 156 180 7,000  Level Chicago Center
12:06PM 40.4139 -88.4153 49° Northeast 157 181 7,000  Level Chicago Center
12:07PM 40.4428 -88.3719 49° Northeast 158 182 7,000  Level Chicago Center
12:08PM 40.4731 -88.3289 47° Northeast 160 184 7,000  Level Chicago Center
12:09PM 40.5022 -88.2850 49° Northeast 160 184 7,000  Level Chicago Center
12:10PM 40.5367 -88.2322 49° Northeast 160 184 7,000  Level Chicago Center
12:11PM 40.5656 -88.1903 48° Northeast 157 181 7,000  Level Chicago Center
12:12PM 40.5931 -88.1467 50° Northeast 157 181 7,000  Level Chicago Center
12:13PM 40.6236 -88.1067 45° Northeast 157 181 7,000  Level Chicago Center
12:14PM 40.6494 -88.0592 54° Northeast 158 182 7,000  Level Chicago Center
12:15PM 40.6844 -88.0100 47° Northeast 155 178 7,000  Level Chicago Center
12:16PM 40.7128 -87.9672 49° Northeast 155 178 7,000  Level Chicago Center
12:17PM 40.7400 -87.9236 51° Northeast 155 178 7,000  Level Chicago Center
12:18PM 40.7675 -87.8811 49° Northeast 155 178 7,000  Level Chicago Center
12:19PM 40.7961 -87.8383 49° Northeast 155 178 7,000  Level Chicago Center
12:20PM 40.8306 -87.7878 48° Northeast 155 178 7,000  Level Chicago Center
12:21PM 40.8586 -87.7444 49° Northeast 156 180 7,000  Level Chicago Center
12:23PM 40.8869 -87.7022 48° Northeast 155 178 7,000  Level Chicago Center
12:24PM 40.9150 -87.6606 48° Northeast 154 177 7,000  Level Chicago Center
12:25PM 40.9439 -87.6192 47° Northeast 155 178 7,000  Level Chicago Center
12:26PM 40.9778 -87.5706 47° Northeast 154 177 7,000 48 Level Chicago Center
12:27PM 41.0033 -87.5261 53° Northeast 154 177 7,100 48 Climbing Chicago Center
12:28PM 41.0294 -87.4803 53° Northeast 155 178 7,100  Level Chicago Center
12:29PM 41.0578 -87.4378 49° Northeast 155 178 7,100  Level Chicago Center
12:30PM 41.0872 -87.3956 47° Northeast 156 180 7,100  Level Chicago Center
12:31PM 41.1133 -87.3506 52° Northeast 156 180 7,100  Level Chicago Center
12:32PM 41.1478 -87.3008 47° Northeast 153 176 7,100 -48 Level Chicago Center
12:33PM 41.1750 -87.2572 50° Northeast 153 176 7,000  Descending Chicago Center
12:34PM 41.2033 -87.2125 50° Northeast 157 181 7,100 48 Climbing Chicago Center
12:35PM 41.2325 -87.1708 47° Northeast 155 178 7,100  Level Chicago Center
12:36PM 41.2542 -87.1231 59° Northeast 153 176 7,100 -48 Level Chicago Center
12:37PM 41.2889 -87.0706 49° Northeast 156 180 7,000 -48 Descending Chicago Center
12:38PM 41.3183 -87.0283 47° Northeast 157 181 7,000  Level Chicago Center
12:39PM 41.3461 -86.9842 50° Northeast 157 181 7,000  Level Chicago Center
12:40PM 41.3742 -86.9422 48° Northeast 154 177 7,000  Level Chicago Center
12:41PM 41.4025 -86.8983 49° Northeast 156 180 7,000  Level Chicago Center
12:42PM 41.4372 -86.8483 47° Northeast 155 178 7,000 48 Level Chicago Center
12:43PM 41.4653 -86.8078 47° Northeast 152 175 7,100  Climbing Chicago Center
12:44PM 41.4903 -86.7625 54° Northeast 153 176 7,000 -48 Descending Chicago Center
12:45PM 41.5158 -86.7175 53° Northeast 153 176 7,000  Level Chicago Center
12:46PM 41.5456 -86.6694 50° Northeast 154 177 7,000  Level Chicago Center
12:47PM 41.5739 -86.6258 49° Northeast 155 178 7,000  Level Chicago Center
12:48PM 41.6033 -86.5828 48° Northeast 156 180 7,000  Level Chicago Center
12:49PM 41.6311 -86.5381 50° Northeast 156 180 7,000  Level Chicago Center
12:51PM 41.6610 -86.4877 52° Northeast  Level FlightAware Approximate
12:51PM 41.6917 -86.4431 52° Northeast 153 176 7,000  Level Chicago Center
12:52PM 41.7186 -86.3978 51° Northeast 154 177 7,000  Level Chicago Center
12:54PM 41.7456 -86.3531 51° Northeast 154 177 7,000 48 Level Chicago Center
12:55PM 41.7725 -86.3094 50° Northeast 152 175 7,100  Climbing Chicago Center
12:57PM 41.8244 -86.2203 52° Northeast 155 178 7,000 -32 Descending Chicago Center
12:58PM 41.8608 -86.1706 45° Northeast 156 180 7,000  Level Chicago Center
12:59PM 41.8886 -86.1233 52° Northeast 160 184 7,000  Level Chicago Center
01:00PM 41.9139 -86.0778 53° Northeast 155 178 7,000  Level Chicago Center
01:01PM 41.9419 -86.0308 51° Northeast 160 184 7,000  Level Chicago Center
01:02PM 41.9725 -85.9897 45° Northeast 157 181 7,000  Level Chicago Center
01:03PM 41.9989 -85.9425 53° Northeast 158 182 7,000  Level Chicago Center
01:04PM 42.0233 -85.8956 55° Northeast 155 178 7,000  Level Chicago Center
01:05PM 42.0583 -85.8444 47° Northeast 155 178 7,000  Level Chicago Center
01:06PM 42.0886 -85.8014 47° Northeast 157 181 7,000 -48 Level Chicago Center
01:07PM 42.1161 -85.7558 51° Northeast 157 181 6,900  Descending Chicago Center
01:08PM 42.1417 -85.7094 53° Northeast 155 178 7,000 48 Climbing Chicago Center
01:09PM 42.1703 -85.6644 49° Northeast 156 180 7,000  Level Chicago Center
01:10PM 42.2019 -85.6208 46° Northeast 161 185 7,000  Level Chicago Center
01:11PM 42.2336 -85.5803 43° Northeast 160 184 7,000  Level Chicago Center
01:12PM 42.2672 -85.5231 52° Northeast 161 185 7,000  Level Chicago Center
01:13PM 42.2931 -85.4814 50° Northeast 162 186 7,000  Level Chicago Center
01:14PM 42.3225 -85.4356 49° Northeast 162 186 7,000  Level Chicago Center
01:15PM 42.3622 -85.3867 42° Northeast 162 186 7,000  Level Chicago Center
01:16PM 42.3919 -85.3433 47° Northeast 159 183 7,000  Level Chicago Center
01:17PM 42.4228 -85.3006 46° Northeast 159 183 7,000  Level Chicago Center
01:18PM 42.4536 -85.2583 45° Northeast 158 182 7,000  Level Chicago Center
01:19PM 42.4833 -85.2150 47° Northeast 159 183 7,000  Level Chicago Center
01:20PM 42.5200 -85.1614 47° Northeast 161 185 7,000 48 Level Chicago Center
01:21PM 42.5506 -85.1169 47° Northeast 161 185 7,100  Climbing Chicago Center
01:22PM 42.5819 -85.0739 45° Northeast 161 185 7,000  Descending Chicago Center
01:23PM 42.6139 -85.0317 44° Northeast 160 184 7,100 48 Climbing Chicago Center
01:25PM 42.6461 -84.9908 43° Northeast 159 183 7,100  Level Chicago Center
01:26PM 42.6792 -84.9483 43° Northeast 162 186 7,100  Level Chicago Center
01:27PM 42.7139 -84.8956 48° Northeast 158 182 7,100  Level Chicago Center
01:28PM 42.7447 -84.8533 45° Northeast 156 180 7,100  Level Chicago Center
01:29PM 42.7728 -84.8094 49° Northeast 155 178 7,100  Level Chicago Center
01:30PM 42.8047 -84.7672 44° Northeast 159 183 7,100  Level Chicago Center
01:31PM 42.8358 -84.7244 45° Northeast 159 183 7,100  Level Chicago Center
01:32PM 42.8633 -84.6808 49° Northeast 154 177 7,100 -48 Level Chicago Center
01:33PM 42.9014 -84.6297 45° Northeast 158 182 7,000 -97 Descending Chicago Center